sensor_id;sensor_type;location;lat;lon;timestamp;pressure;altitude;pressure_sealevel;temperature;humidity
8286;BME280;4181;43.416;24.598;2023-03-01T00:01:08;100562.22;;;8.33;100.00
8286;BME280;4181;43.416;24.598;2023-03-01T00:03:34;100572.41;;;8.37;100.00
8286;BME280;4181;43.416;24.598;2023-03-01T00:06:01;100570.44;;;8.26;100.00
8286;BME280;4181;43.416;24.598;2023-03-01T00:08:27;100543.97;;;8.15;100.00
8286;BME280;4181;43.416;24.598;2023-03-01T00:11:07;100551.91;;;8.17;100.00
8286;BME280;4181;43.416;24.598;2023-03-01T00:13:34;100577.34;;;8.22;100.00
8286;BME280;4181;43.416;24.598;2023-03-01T00:16:10;100575.69;;;8.21;100.00
8286;BME280;4181;43.416;24.598;2023-03-01T00:18:36;100559.81;;;8.18;100.00
8286;BME280;4181;43.416;24.598;2023-03-01T00:21:01;100534.56;;;8.18;100.00
8286;BME280;4181;43.416;24.598;2023-03-01T00:23:27;100545.06;;;8.32;100.00
8286;BME280;4181;43.416;24.598;2023-03-01T00:25:53;100532.81;;;8.23;100.00
8286;BME280;4181;43.416;24.598;2023-03-01T00:28:19;100530.72;;;8.25;100.00
8286;BME280;4181;43.416;24.598;2023-03-01T00:30:45;100537.03;;;8.19;100.00
8286;BME280;4181;43.416;24.598;2023-03-01T00:33:11;100514.84;;;8.04;100.00
8286;BME280;4181;43.416;24.598;2023-03-01T00:35:37;100528.75;;;8.14;100.00
8286;BME280;4181;43.416;24.598;2023-03-01T00:38:03;100535.34;;;8.18;100.00
8286;BME280;4181;43.416;24.598;2023-03-01T00:40:33;100500.78;;;8.07;100.00
8286;BME280;4181;43.416;24.598;2023-03-01T00:42:59;100496.84;;;8.03;100.00
8286;BME280;4181;43.416;24.598;2023-03-01T00:45:25;100505.66;;;8.23;100.00
8286;BME280;4181;43.416;24.598;2023-03-01T00:47:51;100517.50;;;8.29;100.00
8286;BME280;4181;43.416;24.598;2023-03-01T00:50:17;100499.91;;;8.31;100.00
8286;BME280;4181;43.416;24.598;2023-03-01T00:52:43;100485.78;;;8.23;100.00
8286;BME280;4181;43.416;24.598;2023-03-01T00:55:10;100494.91;;;7.92;100.00
8286;BME280;4181;43.416;24.598;2023-03-01T00:57:36;100498.06;;;8.07;100.00
8286;BME280;4181;43.416;24.598;2023-03-01T01:00:02;100500.72;;;8.14;100.00
8286;BME280;4181;43.416;24.598;2023-03-01T01:02:29;100468.09;;;8.14;100.00
8286;BME280;4181;43.416;24.598;2023-03-01T01:04:54;100486.09;;;8.33;100.00
8286;BME280;4181;43.416;24.598;2023-03-01T01:07:20;100491.22;;;8.41;100.00
8286;BME280;4181;43.416;24.598;2023-03-01T01:09:46;100486.16;;;8.26;100.00
8286;BME280;4181;43.416;24.598;2023-03-01T01:12:11;100496.44;;;8.42;100.00
8286;BME280;4181;43.416;24.598;2023-03-01T01:14:37;100488.69;;;8.28;100.00
8286;BME280;4181;43.416;24.598;2023-03-01T01:17:04;100491.94;;;8.12;100.00
8286;BME280;4181;43.416;24.598;2023-03-01T01:19:29;100489.09;;;8.25;100.00
8286;BME280;4181;43.416;24.598;2023-03-01T01:21:55;100474.06;;;8.22;100.00
8286;BME280;4181;43.416;24.598;2023-03-01T01:24:20;100504.34;;;8.44;100.00
8286;BME280;4181;43.416;24.598;2023-03-01T01:26:46;100492.97;;;8.35;100.00
8286;BME280;4181;43.416;24.598;2023-03-01T01:29:12;100488.25;;;8.60;100.00
8286;BME280;4181;43.416;24.598;2023-03-01T01:31:39;100510.78;;;8.31;100.00
8286;BME280;4181;43.416;24.598;2023-03-01T01:34:07;100521.66;;;8.31;100.00
8286;BME280;4181;43.416;24.598;2023-03-01T01:36:37;100518.81;;;8.20;100.00
8286;BME280;4181;43.416;24.598;2023-03-01T01:39:03;100507.78;;;7.97;100.00
8286;BME280;4181;43.416;24.598;2023-03-01T01:41:29;100514.47;;;8.01;100.00
8286;BME280;4181;43.416;24.598;2023-03-01T01:44:25;100459.13;;;7.95;100.00
8286;BME280;4181;43.416;24.598;2023-03-01T01:47:32;100473.47;;;8.02;100.00
8286;BME280;4181;43.416;24.598;2023-03-01T01:49:54;100461.06;;;8.06;100.00
8286;BME280;4181;43.416;24.598;2023-03-01T01:52:31;100483.41;;;8.62;100.00
8286;BME280;4181;43.416;24.598;2023-03-01T01:55:10;100476.97;;;8.27;100.00
8286;BME280;4181;43.416;24.598;2023-03-01T01:57:43;100494.59;;;8.18;100.00
8286;BME280;4181;43.416;24.598;2023-03-01T02:00:15;100494.47;;;8.49;100.00
8286;BME280;4181;43.416;24.598;2023-03-01T02:02:43;100493.09;;;8.22;100.00
8286;BME280;4181;43.416;24.598;2023-03-01T02:05:22;100485.56;;;8.42;100.00
8286;BME280;4181;43.416;24.598;2023-03-01T02:07:50;100487.28;;;8.37;100.00
8286;BME280;4181;43.416;24.598;2023-03-01T02:10:16;100509.47;;;7.98;100.00
8286;BME280;4181;43.416;24.598;2023-03-01T02:12:42;100497.00;;;7.90;100.00
8286;BME280;4181;43.416;24.598;2023-03-01T02:15:08;100514.31;;;8.14;100.00
8286;BME280;4181;43.416;24.598;2023-03-01T02:17:34;100501.69;;;8.01;100.00
8286;BME280;4181;43.416;24.598;2023-03-01T02:22:53;100535.59;;;7.99;100.00
8286;BME280;4181;43.416;24.598;2023-03-01T02:30:49;100481.78;;;7.89;100.00
8286;BME280;4181;43.416;24.598;2023-03-01T02:33:36;100486.38;;;8.07;100.00
8286;BME280;4181;43.416;24.598;2023-03-01T02:36:16;100472.25;;;7.98;100.00
8286;BME280;4181;43.416;24.598;2023-03-01T02:38:42;100488.00;;;7.90;100.00
8286;BME280;4181;43.416;24.598;2023-03-01T02:41:11;100489.47;;;7.92;100.00
8286;BME280;4181;43.416;24.598;2023-03-01T02:43:38;100493.19;;;7.73;100.00
8286;BME280;4181;43.416;24.598;2023-03-01T02:46:13;100486.25;;;7.59;100.00
8286;BME280;4181;43.416;24.598;2023-03-01T02:48:50;100482.00;;;7.45;100.00
8286;BME280;4181;43.416;24.598;2023-03-01T02:54:15;100473.88;;;7.63;100.00
8286;BME280;4181;43.416;24.598;2023-03-01T02:56:42;100447.63;;;7.57;100.00
8286;BME280;4181;43.416;24.598;2023-03-01T02:59:09;100433.31;;;7.68;100.00
8286;BME280;4181;43.416;24.598;2023-03-01T03:01:35;100426.53;;;7.77;100.00
8286;BME280;4181;43.416;24.598;2023-03-01T03:04:07;100460.88;;;8.08;100.00
8286;BME280;4181;43.416;24.598;2023-03-01T03:06:33;100438.22;;;7.96;100.00
8286;BME280;4181;43.416;24.598;2023-03-01T03:08:59;100443.59;;;8.02;100.00
8286;BME280;4181;43.416;24.598;2023-03-01T03:11:24;100452.13;;;8.06;100.00
8286;BME280;4181;43.416;24.598;2023-03-01T03:13:50;100434.06;;;7.75;100.00
8286;BME280;4181;43.416;24.598;2023-03-01T03:16:17;100461.03;;;8.31;100.00
8286;BME280;4181;43.416;24.598;2023-03-01T03:18:43;100431.19;;;8.06;100.00
8286;BME280;4181;43.416;24.598;2023-03-01T03:21:11;100471.44;;;8.16;100.00
8286;BME280;4181;43.416;24.598;2023-03-01T03:23:37;100455.13;;;7.98;100.00
8286;BME280;4181;43.416;24.598;2023-03-01T03:26:04;100485.22;;;7.96;100.00
8286;BME280;4181;43.416;24.598;2023-03-01T03:28:31;100470.75;;;7.84;100.00
8286;BME280;4181;43.416;24.598;2023-03-01T03:30:57;100451.88;;;7.71;100.00
8286;BME280;4181;43.416;24.598;2023-03-01T03:33:23;100427.00;;;7.74;100.00
8286;BME280;4181;43.416;24.598;2023-03-01T03:35:49;100454.16;;;7.92;100.00
8286;BME280;4181;43.416;24.598;2023-03-01T03:38:18;100465.47;;;7.89;100.00
8286;BME280;4181;43.416;24.598;2023-03-01T03:40:45;100459.81;;;7.72;100.00
8286;BME280;4181;43.416;24.598;2023-03-01T03:43:30;100458.13;;;7.90;100.00
8286;BME280;4181;43.416;24.598;2023-03-01T03:46:15;100450.66;;;8.03;100.00
8286;BME280;4181;43.416;24.598;2023-03-01T03:48:44;100441.16;;;8.12;100.00
8286;BME280;4181;43.416;24.598;2023-03-01T03:51:15;100437.31;;;8.02;100.00
8286;BME280;4181;43.416;24.598;2023-03-01T03:53:41;100453.53;;;7.90;100.00
8286;BME280;4181;43.416;24.598;2023-03-01T03:56:07;100434.59;;;7.84;100.00
8286;BME280;4181;43.416;24.598;2023-03-01T03:58:52;100458.66;;;8.16;100.00
8286;BME280;4181;43.416;24.598;2023-03-01T04:10:49;100490.63;;;7.60;100.00
8286;BME280;4181;43.416;24.598;2023-03-01T04:13:18;100498.28;;;7.45;100.00
8286;BME280;4181;43.416;24.598;2023-03-01T04:15:48;100473.16;;;7.49;100.00
8286;BME280;4181;43.416;24.598;2023-03-01T04:18:15;100462.53;;;7.48;100.00
8286;BME280;4181;43.416;24.598;2023-03-01T04:20:42;100482.19;;;7.68;100.00
8286;BME280;4181;43.416;24.598;2023-03-01T04:23:15;100446.09;;;7.43;100.00
8286;BME280;4181;43.416;24.598;2023-03-01T04:25:51;100445.75;;;7.33;100.00
8286;BME280;4181;43.416;24.598;2023-03-01T04:28:31;100483.75;;;7.33;100.00
8286;BME280;4181;43.416;24.598;2023-03-01T04:31:07;100459.50;;;7.38;100.00
8286;BME280;4181;43.416;24.598;2023-03-01T04:33:43;100486.47;;;7.33;100.00
8286;BME280;4181;43.416;24.598;2023-03-01T04:36:10;100478.91;;;7.17;100.00
8286;BME280;4181;43.416;24.598;2023-03-01T04:38:37;100441.47;;;7.01;100.00
8286;BME280;4181;43.416;24.598;2023-03-01T04:41:08;100436.72;;;7.21;100.00
8286;BME280;4181;43.416;24.598;2023-03-01T04:43:35;100442.84;;;7.10;100.00
8286;BME280;4181;43.416;24.598;2023-03-01T04:46:06;100444.06;;;7.14;100.00
8286;BME280;4181;43.416;24.598;2023-03-01T04:48:33;100455.03;;;7.25;100.00
8286;BME280;4181;43.416;24.598;2023-03-01T04:50:59;100449.22;;;7.22;100.00
8286;BME280;4181;43.416;24.598;2023-03-01T04:53:25;100446.34;;;7.17;100.00
8286;BME280;4181;43.416;24.598;2023-03-01T04:55:51;100435.19;;;7.25;100.00
8286;BME280;4181;43.416;24.598;2023-03-01T04:58:16;100442.63;;;7.36;100.00
8286;BME280;4181;43.416;24.598;2023-03-01T05:00:42;100405.59;;;7.41;100.00
8286;BME280;4181;43.416;24.598;2023-03-01T05:03:08;100426.84;;;7.69;100.00
8286;BME280;4181;43.416;24.598;2023-03-01T05:05:36;100398.59;;;7.70;100.00
8286;BME280;4181;43.416;24.598;2023-03-01T05:08:05;100433.44;;;7.91;100.00
8286;BME280;4181;43.416;24.598;2023-03-01T05:10:32;100434.22;;;7.98;100.00
8286;BME280;4181;43.416;24.598;2023-03-01T05:13:00;100452.91;;;8.06;100.00
8286;BME280;4181;43.416;24.598;2023-03-01T05:15:27;100449.47;;;8.17;100.00
8286;BME280;4181;43.416;24.598;2023-03-01T05:17:54;100479.22;;;8.12;100.00
8286;BME280;4181;43.416;24.598;2023-03-01T05:20:20;100459.44;;;8.23;100.00
8286;BME280;4181;43.416;24.598;2023-03-01T05:22:50;100452.13;;;8.24;100.00
8286;BME280;4181;43.416;24.598;2023-03-01T05:25:16;100492.03;;;8.41;100.00
8286;BME280;4181;43.416;24.598;2023-03-01T05:27:42;100494.28;;;8.08;100.00
8286;BME280;4181;43.416;24.598;2023-03-01T05:30:11;100510.91;;;8.18;100.00
8286;BME280;4181;43.416;24.598;2023-03-01T05:32:43;100489.25;;;8.12;100.00
8286;BME280;4181;43.416;24.598;2023-03-01T05:35:11;100515.88;;;8.03;100.00
8286;BME280;4181;43.416;24.598;2023-03-01T05:37:45;100519.66;;;7.84;100.00
8286;BME280;4181;43.416;24.598;2023-03-01T05:40:13;100493.97;;;7.80;100.00
8286;BME280;4181;43.416;24.598;2023-03-01T05:42:55;100531.59;;;8.19;100.00
8286;BME280;4181;43.416;24.598;2023-03-01T05:45:24;100521.31;;;8.21;100.00
8286;BME280;4181;43.416;24.598;2023-03-01T05:47:50;100518.13;;;8.06;100.00
8286;BME280;4181;43.416;24.598;2023-03-01T05:50:17;100547.59;;;8.09;100.00
8286;BME280;4181;43.416;24.598;2023-03-01T05:52:50;100525.81;;;7.91;100.00
8286;BME280;4181;43.416;24.598;2023-03-01T05:55:20;100541.25;;;7.97;100.00
8286;BME280;4181;43.416;24.598;2023-03-01T05:57:46;100558.06;;;7.88;100.00
8286;BME280;4181;43.416;24.598;2023-03-01T06:00:14;100542.06;;;7.55;100.00
8286;BME280;4181;43.416;24.598;2023-03-01T06:02:43;100512.69;;;7.21;100.00
8286;BME280;4181;43.416;24.598;2023-03-01T06:05:10;100490.28;;;7.50;100.00
8286;BME280;4181;43.416;24.598;2023-03-01T06:07:35;100505.97;;;7.72;100.00
8286;BME280;4181;43.416;24.598;2023-03-01T06:10:22;100516.50;;;7.62;100.00
8286;BME280;4181;43.416;24.598;2023-03-01T06:12:47;100494.44;;;7.28;100.00
8286;BME280;4181;43.416;24.598;2023-03-01T06:15:15;100494.63;;;7.08;100.00
8286;BME280;4181;43.416;24.598;2023-03-01T06:17:42;100496.13;;;7.29;100.00
8286;BME280;4181;43.416;24.598;2023-03-01T06:20:12;100470.91;;;7.22;100.00
8286;BME280;4181;43.416;24.598;2023-03-01T06:22:39;100513.31;;;7.47;100.00
8286;BME280;4181;43.416;24.598;2023-03-01T06:25:05;100497.78;;;7.30;100.00
8286;BME280;4181;43.416;24.598;2023-03-01T06:27:31;100514.84;;;7.37;100.00
8286;BME280;4181;43.416;24.598;2023-03-01T06:29:57;100479.84;;;6.98;100.00
8286;BME280;4181;43.416;24.598;2023-03-01T06:32:22;100499.66;;;7.29;100.00
8286;BME280;4181;43.416;24.598;2023-03-01T06:34:48;100475.56;;;7.15;100.00
8286;BME280;4181;43.416;24.598;2023-03-01T06:37:14;100479.91;;;7.22;100.00
8286;BME280;4181;43.416;24.598;2023-03-01T06:39:39;100465.00;;;7.31;100.00
8286;BME280;4181;43.416;24.598;2023-03-01T06:42:08;100446.53;;;7.40;100.00
8286;BME280;4181;43.416;24.598;2023-03-01T06:44:35;100460.53;;;7.61;100.00
8286;BME280;4181;43.416;24.598;2023-03-01T06:47:01;100459.72;;;7.79;100.00
8286;BME280;4181;43.416;24.598;2023-03-01T06:49:29;100448.63;;;7.81;100.00
8286;BME280;4181;43.416;24.598;2023-03-01T06:51:55;100466.50;;;7.88;100.00
8286;BME280;4181;43.416;24.598;2023-03-01T06:54:21;100498.59;;;7.55;100.00
8286;BME280;4181;43.416;24.598;2023-03-01T06:56:48;100493.91;;;7.87;100.00
8286;BME280;4181;43.416;24.598;2023-03-01T06:59:13;100502.91;;;7.87;100.00
8286;BME280;4181;43.416;24.598;2023-03-01T07:01:39;100471.63;;;7.78;100.00
8286;BME280;4181;43.416;24.598;2023-03-01T07:04:05;100479.13;;;7.83;100.00
8286;BME280;4181;43.416;24.598;2023-03-01T07:06:30;100481.97;;;7.69;100.00
8286;BME280;4181;43.416;24.598;2023-03-01T07:08:56;100500.78;;;7.89;100.00
8286;BME280;4181;43.416;24.598;2023-03-01T07:11:21;100474.34;;;7.78;100.00
8286;BME280;4181;43.416;24.598;2023-03-01T07:13:47;100519.81;;;8.07;100.00
8286;BME280;4181;43.416;24.598;2023-03-01T07:16:13;100501.84;;;8.06;100.00
8286;BME280;4181;43.416;24.598;2023-03-01T07:18:41;100527.50;;;7.92;100.00
8286;BME280;4181;43.416;24.598;2023-03-01T07:21:08;100502.81;;;7.94;100.00
8286;BME280;4181;43.416;24.598;2023-03-01T07:23:34;100502.97;;;8.17;100.00
8286;BME280;4181;43.416;24.598;2023-03-01T07:25:59;100529.13;;;8.18;100.00
8286;BME280;4181;43.416;24.598;2023-03-01T07:28:26;100560.34;;;8.09;100.00
8286;BME280;4181;43.416;24.598;2023-03-01T07:30:51;100544.00;;;7.72;100.00
8286;BME280;4181;43.416;24.598;2023-03-01T07:33:17;100566.00;;;7.89;100.00
8286;BME280;4181;43.416;24.598;2023-03-01T07:35:43;100546.72;;;7.72;100.00
8286;BME280;4181;43.416;24.598;2023-03-01T07:38:08;100539.06;;;7.88;100.00
8286;BME280;4181;43.416;24.598;2023-03-01T07:40:34;100494.97;;;7.86;100.00
8286;BME280;4181;43.416;24.598;2023-03-01T07:43:03;100493.38;;;7.96;100.00
8286;BME280;4181;43.416;24.598;2023-03-01T07:45:29;100488.25;;;7.88;100.00
8286;BME280;4181;43.416;24.598;2023-03-01T07:47:55;100513.53;;;8.07;100.00
8286;BME280;4181;43.416;24.598;2023-03-01T07:50:21;100522.13;;;7.86;100.00
8286;BME280;4181;43.416;24.598;2023-03-01T07:52:48;100511.47;;;7.66;100.00
8286;BME280;4181;43.416;24.598;2023-03-01T07:55:15;100508.41;;;7.31;100.00
8286;BME280;4181;43.416;24.598;2023-03-01T07:57:41;100527.59;;;7.36;100.00
8286;BME280;4181;43.416;24.598;2023-03-01T08:00:10;100524.88;;;7.61;100.00
8286;BME280;4181;43.416;24.598;2023-03-01T08:02:36;100504.25;;;7.53;100.00
8286;BME280;4181;43.416;24.598;2023-03-01T08:05:01;100474.53;;;7.16;100.00
8286;BME280;4181;43.416;24.598;2023-03-01T08:07:27;100490.59;;;7.42;100.00
8286;BME280;4181;43.416;24.598;2023-03-01T08:09:52;100485.50;;;7.70;100.00
8286;BME280;4181;43.416;24.598;2023-03-01T08:12:18;100488.22;;;7.70;100.00
8286;BME280;4181;43.416;24.598;2023-03-01T08:14:44;100466.34;;;7.22;100.00
8286;BME280;4181;43.416;24.598;2023-03-01T08:17:09;100486.59;;;7.44;100.00
8286;BME280;4181;43.416;24.598;2023-03-01T08:19:35;100460.59;;;7.55;100.00
8286;BME280;4181;43.416;24.598;2023-03-01T08:22:02;100475.25;;;7.54;100.00
8286;BME280;4181;43.416;24.598;2023-03-01T08:24:28;100448.25;;;7.59;100.00
8286;BME280;4181;43.416;24.598;2023-03-01T08:26:53;100454.44;;;7.66;100.00
8286;BME280;4181;43.416;24.598;2023-03-01T08:29:19;100455.19;;;7.73;100.00
8286;BME280;4181;43.416;24.598;2023-03-01T08:31:45;100465.09;;;7.43;100.00
8286;BME280;4181;43.416;24.598;2023-03-01T08:34:13;100449.88;;;7.42;100.00
8286;BME280;4181;43.416;24.598;2023-03-01T08:36:41;100453.97;;;7.51;100.00
8286;BME280;4181;43.416;24.598;2023-03-01T08:39:08;100467.25;;;7.59;100.00
8286;BME280;4181;43.416;24.598;2023-03-01T08:41:34;100458.56;;;7.50;100.00
8286;BME280;4181;43.416;24.598;2023-03-01T08:43:59;100437.13;;;7.42;100.00
8286;BME280;4181;43.416;24.598;2023-03-01T08:46:30;100450.00;;;7.29;100.00
8286;BME280;4181;43.416;24.598;2023-03-01T08:48:56;100453.69;;;7.59;100.00
8286;BME280;4181;43.416;24.598;2023-03-01T08:51:24;100440.56;;;7.74;100.00
8286;BME280;4181;43.416;24.598;2023-03-01T08:53:50;100456.38;;;7.59;100.00
8286;BME280;4181;43.416;24.598;2023-03-01T08:56:16;100448.63;;;7.81;100.00
8286;BME280;4181;43.416;24.598;2023-03-01T08:58:47;100436.41;;;7.90;100.00
8286;BME280;4181;43.416;24.598;2023-03-01T09:01:15;100426.69;;;7.82;100.00
8286;BME280;4181;43.416;24.598;2023-03-01T09:03:42;100444.00;;;7.81;100.00
8286;BME280;4181;43.416;24.598;2023-03-01T09:06:08;100455.56;;;7.95;100.00
8286;BME280;4181;43.416;24.598;2023-03-01T09:08:35;100437.25;;;7.90;100.00
8286;BME280;4181;43.416;24.598;2023-03-01T09:11:02;100467.66;;;7.81;100.00
8286;BME280;4181;43.416;24.598;2023-03-01T09:13:29;100464.41;;;7.90;100.00
8286;BME280;4181;43.416;24.598;2023-03-01T09:15:57;100460.50;;;8.04;100.00
8286;BME280;4181;43.416;24.598;2023-03-01T09:18:24;100454.91;;;8.17;100.00
8286;BME280;4181;43.416;24.598;2023-03-01T09:20:50;100461.50;;;8.28;100.00
8286;BME280;4181;43.416;24.598;2023-03-01T09:23:15;100455.97;;;8.34;100.00
8286;BME280;4181;43.416;24.598;2023-03-01T09:25:41;100432.25;;;8.23;100.00
8286;BME280;4181;43.416;24.598;2023-03-01T09:28:06;100462.50;;;8.45;100.00
8286;BME280;4181;43.416;24.598;2023-03-01T09:30:32;100487.84;;;8.27;100.00
8286;BME280;4181;43.416;24.598;2023-03-01T09:32:57;100484.09;;;8.22;100.00
8286;BME280;4181;43.416;24.598;2023-03-01T09:35:23;100488.31;;;8.00;100.00
8286;BME280;4181;43.416;24.598;2023-03-01T09:37:49;100484.19;;;8.15;100.00
8286;BME280;4181;43.416;24.598;2023-03-01T09:40:23;100487.66;;;8.22;100.00
8286;BME280;4181;43.416;24.598;2023-03-01T09:42:54;100482.31;;;8.16;100.00
8286;BME280;4181;43.416;24.598;2023-03-01T09:45:36;100478.75;;;7.97;100.00
8286;BME280;4181;43.416;24.598;2023-03-01T09:48:05;100497.41;;;8.30;100.00
8286;BME280;4181;43.416;24.598;2023-03-01T09:50:39;100502.03;;;8.29;100.00
8286;BME280;4181;43.416;24.598;2023-03-01T09:53:10;100514.69;;;8.17;100.00
8286;BME280;4181;43.416;24.598;2023-03-01T09:55:53;100508.63;;;7.97;100.00
8286;BME280;4181;43.416;24.598;2023-03-01T10:04:10;100499.50;;;7.92;100.00
8286;BME280;4181;43.416;24.598;2023-03-01T10:06:40;100493.97;;;7.80;100.00
8286;BME280;4181;43.416;24.598;2023-03-01T10:09:15;100488.69;;;7.85;100.00
8286;BME280;4181;43.416;24.598;2023-03-01T10:11:45;100468.50;;;7.99;100.00
8286;BME280;4181;43.416;24.598;2023-03-01T10:14:39;100483.72;;;8.18;100.00
8286;BME280;4181;43.416;24.598;2023-03-01T10:17:15;100480.41;;;8.16;100.00
8286;BME280;4181;43.416;24.598;2023-03-01T10:19:45;100477.31;;;7.95;100.00
8286;BME280;4181;43.416;24.598;2023-03-01T10:24:50;100462.91;;;8.12;100.00
8286;BME280;4181;43.416;24.598;2023-03-01T10:32:32;100474.41;;;8.32;100.00
8286;BME280;4181;43.416;24.598;2023-03-01T10:34:57;100471.75;;;8.08;100.00
8286;BME280;4181;43.416;24.598;2023-03-01T10:37:24;100470.97;;;8.01;100.00
8286;BME280;4181;43.416;24.598;2023-03-01T10:40:09;100459.72;;;8.15;100.00
8286;BME280;4181;43.416;24.598;2023-03-01T10:42:38;100471.66;;;8.14;100.00
8286;BME280;4181;43.416;24.598;2023-03-01T10:45:30;100486.63;;;8.23;100.00
8286;BME280;4181;43.416;24.598;2023-03-01T10:50:33;100460.19;;;8.12;100.00
8286;BME280;4181;43.416;24.598;2023-03-01T10:53:01;100449.63;;;8.04;100.00
8286;BME280;4181;43.416;24.598;2023-03-01T10:55:33;100430.59;;;8.04;100.00
8286;BME280;4181;43.416;24.598;2023-03-01T10:58:20;100457.69;;;8.11;100.00
8286;BME280;4181;43.416;24.598;2023-03-01T11:03:18;100443.88;;;7.94;100.00
8286;BME280;4181;43.416;24.598;2023-03-01T11:05:57;100432.88;;;8.07;100.00
8286;BME280;4181;43.416;24.598;2023-03-01T11:08:45;100426.34;;;8.08;100.00
8286;BME280;4181;43.416;24.598;2023-03-01T11:11:17;100419.19;;;8.32;100.00
8286;BME280;4181;43.416;24.598;2023-03-01T11:13:55;100392.53;;;8.22;100.00
8286;BME280;4181;43.416;24.598;2023-03-01T11:16:31;100423.50;;;8.39;100.00
8286;BME280;4181;43.416;24.598;2023-03-01T11:19:15;100427.16;;;8.45;100.00
8286;BME280;4181;43.416;24.598;2023-03-01T11:22:03;100416.31;;;8.56;100.00
8286;BME280;4181;43.416;24.598;2023-03-01T11:24:39;100435.88;;;8.35;100.00
8286;BME280;4181;43.416;24.598;2023-03-01T11:32:56;100430.53;;;8.58;100.00
8286;BME280;4181;43.416;24.598;2023-03-01T11:35:26;100437.13;;;8.51;100.00
8286;BME280;4181;43.416;24.598;2023-03-01T11:38:09;100446.84;;;8.58;100.00
8286;BME280;4181;43.416;24.598;2023-03-01T11:40:57;100417.75;;;8.59;100.00
8286;BME280;4181;43.416;24.598;2023-03-01T11:43:33;100424.44;;;8.74;100.00
8286;BME280;4181;43.416;24.598;2023-03-01T11:49:10;100422.31;;;8.88;100.00
8286;BME280;4181;43.416;24.598;2023-03-01T12:00:33;100453.53;;;8.44;100.00
8286;BME280;4181;43.416;24.598;2023-03-01T12:08:33;100452.75;;;8.55;100.00
8286;BME280;4181;43.416;24.598;2023-03-01T12:22:42;100445.09;;;9.17;100.00
8286;BME280;4181;43.416;24.598;2023-03-01T12:34:16;100455.59;;;9.02;100.00
8286;BME280;4181;43.416;24.598;2023-03-01T12:50:13;100460.53;;;8.93;100.00
8286;BME280;4181;43.416;24.598;2023-03-01T12:52:45;100470.25;;;8.89;100.00
8286;BME280;4181;43.416;24.598;2023-03-01T12:55:36;100468.50;;;8.94;100.00
8286;BME280;4181;43.416;24.598;2023-03-01T12:58:26;100466.34;;;8.96;100.00
8286;BME280;4181;43.416;24.598;2023-03-01T13:03:54;100451.88;;;9.26;100.00
8286;BME280;4181;43.416;24.598;2023-03-01T13:06:27;100449.88;;;9.33;100.00
8286;BME280;4181;43.416;24.598;2023-03-01T13:09:06;100463.81;;;9.25;100.00
8286;BME280;4181;43.416;24.598;2023-03-01T13:11:41;100477.09;;;9.33;100.00
8286;BME280;4181;43.416;24.598;2023-03-01T13:16:49;100477.47;;;9.36;100.00
8286;BME280;4181;43.416;24.598;2023-03-01T13:19:26;100475.19;;;9.45;100.00
8286;BME280;4181;43.416;24.598;2023-03-01T13:21:54;100470.09;;;9.48;100.00
8286;BME280;4181;43.416;24.598;2023-03-01T13:24:38;100472.84;;;9.60;100.00
8286;BME280;4181;43.416;24.598;2023-03-01T13:29:52;100487.06;;;9.62;100.00
8286;BME280;4181;43.416;24.598;2023-03-01T13:32:25;100478.88;;;9.62;100.00
8286;BME280;4181;43.416;24.598;2023-03-01T13:37:45;100469.31;;;9.59;100.00
8286;BME280;4181;43.416;24.598;2023-03-01T13:42:47;100479.47;;;9.64;100.00
8286;BME280;4181;43.416;24.598;2023-03-01T13:47:42;100484.69;;;9.54;100.00
8286;BME280;4181;43.416;24.598;2023-03-01T13:50:18;100491.66;;;9.50;100.00
8286;BME280;4181;43.416;24.598;2023-03-01T13:53:17;100496.19;;;9.44;100.00
8286;BME280;4181;43.416;24.598;2023-03-01T13:55:52;100464.91;;;9.47;100.00
8286;BME280;4181;43.416;24.598;2023-03-01T13:58:24;100479.72;;;9.62;100.00
8286;BME280;4181;43.416;24.598;2023-03-01T14:01:07;100479.59;;;9.57;100.00
8286;BME280;4181;43.416;24.598;2023-03-01T14:03:45;100483.72;;;9.60;100.00
8286;BME280;4181;43.416;24.598;2023-03-01T14:06:16;100471.44;;;9.46;100.00
8286;BME280;4181;43.416;24.598;2023-03-01T14:08:48;100471.31;;;9.64;100.00
8286;BME280;4181;43.416;24.598;2023-03-01T14:11:55;100482.09;;;9.59;100.00
8286;BME280;4181;43.416;24.598;2023-03-01T14:14:59;100478.63;;;9.75;100.00
8286;BME280;4181;43.416;24.598;2023-03-01T14:20:23;100488.38;;;9.59;100.00
8286;BME280;4181;43.416;24.598;2023-03-01T14:22:51;100489.28;;;9.53;100.00
8286;BME280;4181;43.416;24.598;2023-03-01T14:25:34;100491.22;;;9.64;100.00
8286;BME280;4181;43.416;24.598;2023-03-01T14:30:41;100492.97;;;9.59;100.00
8286;BME280;4181;43.416;24.598;2023-03-01T14:36:08;100475.13;;;9.63;100.00
8286;BME280;4181;43.416;24.598;2023-03-01T14:41:10;100474.50;;;9.61;100.00
8286;BME280;4181;43.416;24.598;2023-03-01T14:43:46;100464.66;;;9.48;100.00
8286;BME280;4181;43.416;24.598;2023-03-01T14:46:38;100483.97;;;9.58;100.00
8286;BME280;4181;43.416;24.598;2023-03-01T14:49:10;100469.66;;;9.51;100.00
8286;BME280;4181;43.416;24.598;2023-03-01T14:51:38;100475.91;;;9.52;100.00
8286;BME280;4181;43.416;24.598;2023-03-01T14:57:05;100480.44;;;9.46;100.00
8286;BME280;4181;43.416;24.598;2023-03-01T14:59:33;100477.34;;;9.43;100.00
8286;BME280;4181;43.416;24.598;2023-03-01T15:01:59;100481.13;;;9.42;100.00
8286;BME280;4181;43.416;24.598;2023-03-01T15:04:26;100490.84;;;9.61;100.00
8286;BME280;4181;43.416;24.598;2023-03-01T15:06:54;100481.97;;;9.65;100.00
8286;BME280;4181;43.416;24.598;2023-03-01T15:09:21;100472.03;;;9.48;100.00
8286;BME280;4181;43.416;24.598;2023-03-01T15:11:47;100495.81;;;9.41;100.00
8286;BME280;4181;43.416;24.598;2023-03-01T15:14:41;100520.78;;;9.26;100.00
8286;BME280;4181;43.416;24.598;2023-03-01T15:17:36;100506.22;;;9.32;100.00
8286;BME280;4181;43.416;24.598;2023-03-01T15:20:17;100519.31;;;9.12;100.00
8286;BME280;4181;43.416;24.598;2023-03-01T15:22:46;100484.63;;;9.08;100.00